sensor_id;sensor_type;location;lat;lon;timestamp;temperature;humidity
22071;DHT22;11200;51.488;6.668;2022-08-01T00:01:20;20.30;99.90
22071;DHT22;11200;51.488;6.668;2022-08-01T00:03:46;20.30;99.90
22071;DHT22;11200;51.488;6.668;2022-08-01T00:06:12;20.30;99.90
22071;DHT22;11200;51.488;6.668;2022-08-01T00:08:37;20.30;99.90
22071;DHT22;11200;51.488;6.668;2022-08-01T00:11:03;20.30;99.90
22071;DHT22;11200;51.488;6.668;2022-08-01T00:13:29;20.20;99.90
22071;DHT22;11200;51.488;6.668;2022-08-01T00:15:54;20.20;99.90
22071;DHT22;11200;51.488;6.668;2022-08-01T00:18:20;20.20;99.90
22071;DHT22;11200;51.488;6.668;2022-08-01T00:20:46;20.20;99.90
22071;DHT22;11200;51.488;6.668;2022-08-01T00:23:11;20.20;99.90
22071;DHT22;11200;51.488;6.668;2022-08-01T00:25:37;20.20;99.90
22071;DHT22;11200;51.488;6.668;2022-08-01T00:28:02;20.30;99.90
22071;DHT22;11200;51.488;6.668;2022-08-01T00:30:28;20.20;99.90
22071;DHT22;11200;51.488;6.668;2022-08-01T00:32:53;20.20;99.90
22071;DHT22;11200;51.488;6.668;2022-08-01T00:35:19;20.20;99.90
22071;DHT22;11200;51.488;6.668;2022-08-01T00:37:45;20.20;99.90
22071;DHT22;11200;51.488;6.668;2022-08-01T00:40:10;20.20;99.90
22071;DHT22;11200;51.488;6.668;2022-08-01T00:42:36;20.20;99.90
22071;DHT22;11200;51.488;6.668;2022-08-01T00:45:02;20.10;99.90
22071;DHT22;11200;51.488;6.668;2022-08-01T00:47:27;20.20;99.90
22071;DHT22;11200;51.488;6.668;2022-08-01T00:49:53;20.10;99.90
22071;DHT22;11200;51.488;6.668;2022-08-01T00:52:19;20.10;99.90
22071;DHT22;11200;51.488;6.668;2022-08-01T00:54:45;20.10;99.90
22071;DHT22;11200;51.488;6.668;2022-08-01T00:57:11;20.10;99.90
22071;DHT22;11200;51.488;6.668;2022-08-01T00:59:37;20.10;99.90
22071;DHT22;11200;51.488;6.668;2022-08-01T01:02:04;20.10;99.90
22071;DHT22;11200;51.488;6.668;2022-08-01T01:04:29;20.10;99.90
22071;DHT22;11200;51.488;6.668;2022-08-01T01:07:13;20.10;99.90
22071;DHT22;11200;51.488;6.668;2022-08-01T01:10:04;20.00;99.90
22071;DHT22;11200;51.488;6.668;2022-08-01T01:12:59;20.10;99.90
22071;DHT22;11200;51.488;6.668;2022-08-01T01:15:39;20.00;99.90
22071;DHT22;11200;51.488;6.668;2022-08-01T01:20:43;20.00;99.90
22071;DHT22;11200;51.488;6.668;2022-08-01T01:31:21;19.90;99.90
22071;DHT22;11200;51.488;6.668;2022-08-01T01:33:48;20.00;99.90
22071;DHT22;11200;51.488;6.668;2022-08-01T01:36:16;19.90;99.90
22071;DHT22;11200;51.488;6.668;2022-08-01T01:38:45;19.90;99.90
22071;DHT22;11200;51.488;6.668;2022-08-01T01:41:15;19.90;99.90
22071;DHT22;11200;51.488;6.668;2022-08-01T01:43:41;19.90;99.90
22071;DHT22;11200;51.488;6.668;2022-08-01T01:46:09;19.90;99.90
22071;DHT22;11200;51.488;6.668;2022-08-01T01:48:35;19.90;99.90
22071;DHT22;11200;51.488;6.668;2022-08-01T01:51:03;19.90;99.90
22071;DHT22;11200;51.488;6.668;2022-08-01T01:53:29;19.90;99.90
22071;DHT22;11200;51.488;6.668;2022-08-01T01:55:57;19.90;99.90
22071;DHT22;11200;51.488;6.668;2022-08-01T01:58:24;19.90;99.90
22071;DHT22;11200;51.488;6.668;2022-08-01T02:00:52;19.90;99.90
22071;DHT22;11200;51.488;6.668;2022-08-01T02:03:18;19.80;99.90
22071;DHT22;11200;51.488;6.668;2022-08-01T02:05:45;19.80;99.90
22071;DHT22;11200;51.488;6.668;2022-08-01T02:08:15;19.80;99.90
22071;DHT22;11200;51.488;6.668;2022-08-01T02:10:42;19.80;99.90
22071;DHT22;11200;51.488;6.668;2022-08-01T02:13:42;19.80;99.90
22071;DHT22;11200;51.488;6.668;2022-08-01T02:16:08;19.80;99.90
22071;DHT22;11200;51.488;6.668;2022-08-01T02:18:36;19.80;99.90
22071;DHT22;11200;51.488;6.668;2022-08-01T02:21:04;19.80;99.90
22071;DHT22;11200;51.488;6.668;2022-08-01T02:23:32;19.80;99.90
22071;DHT22;11200;51.488;6.668;2022-08-01T02:26:00;19.80;99.90
22071;DHT22;11200;51.488;6.668;2022-08-01T02:28:34;19.80;99.90
22071;DHT22;11200;51.488;6.668;2022-08-01T02:31:04;19.80;99.90
22071;DHT22;11200;51.488;6.668;2022-08-01T02:33:38;19.80;99.90
22071;DHT22;11200;51.488;6.668;2022-08-01T02:36:05;19.80;99.90
22071;DHT22;11200;51.488;6.668;2022-08-01T02:38:37;19.80;99.90
22071;DHT22;11200;51.488;6.668;2022-08-01T02:41:08;19.80;99.90
22071;DHT22;11200;51.488;6.668;2022-08-01T02:43:37;19.80;99.90
22071;DHT22;11200;51.488;6.668;2022-08-01T02:46:04;19.80;99.90
22071;DHT22;11200;51.488;6.668;2022-08-01T02:48:34;19.80;99.90
22071;DHT22;11200;51.488;6.668;2022-08-01T02:51:01;19.80;99.90
22071;DHT22;11200;51.488;6.668;2022-08-01T02:53:31;19.80;99.90
22071;DHT22;11200;51.488;6.668;2022-08-01T02:55:58;19.80;99.90
22071;DHT22;11200;51.488;6.668;2022-08-01T02:58:25;19.80;99.90
22071;DHT22;11200;51.488;6.668;2022-08-01T03:00:51;19.70;99.90
22071;DHT22;11200;51.488;6.668;2022-08-01T03:03:18;19.80;99.90
22071;DHT22;11200;51.488;6.668;2022-08-01T03:05:44;19.70;99.90
22071;DHT22;11200;51.488;6.668;2022-08-01T03:08:11;19.70;99.90
22071;DHT22;11200;51.488;6.668;2022-08-01T03:10:40;19.70;99.90
22071;DHT22;11200;51.488;6.668;2022-08-01T03:13:08;19.70;99.90
22071;DHT22;11200;51.488;6.668;2022-08-01T03:15:37;19.70;99.90
22071;DHT22;11200;51.488;6.668;2022-08-01T03:18:06;19.70;99.90
22071;DHT22;11200;51.488;6.668;2022-08-01T03:20:34;19.70;99.90
22071;DHT22;11200;51.488;6.668;2022-08-01T03:23:03;19.70;99.90
22071;DHT22;11200;51.488;6.668;2022-08-01T03:25:31;19.70;99.90
22071;DHT22;11200;51.488;6.668;2022-08-01T03:28:01;19.70;99.90
22071;DHT22;11200;51.488;6.668;2022-08-01T03:30:28;19.70;99.90
22071;DHT22;11200;51.488;6.668;2022-08-01T03:32:55;19.70;99.90
22071;DHT22;11200;51.488;6.668;2022-08-01T03:35:23;19.70;99.90
22071;DHT22;11200;51.488;6.668;2022-08-01T03:37:52;19.70;99.90
22071;DHT22;11200;51.488;6.668;2022-08-01T03:40:25;19.80;99.90
22071;DHT22;11200;51.488;6.668;2022-08-01T03:42:58;19.70;99.90
22071;DHT22;11200;51.488;6.668;2022-08-01T03:45:33;19.70;99.90
22071;DHT22;11200;51.488;6.668;2022-08-01T03:48:02;19.70;99.90
22071;DHT22;11200;51.488;6.668;2022-08-01T03:50:29;19.70;99.90
22071;DHT22;11200;51.488;6.668;2022-08-01T03:53:00;19.70;99.90
22071;DHT22;11200;51.488;6.668;2022-08-01T03:55:27;19.70;99.90
22071;DHT22;11200;51.488;6.668;2022-08-01T03:57:54;19.80;99.90
22071;DHT22;11200;51.488;6.668;2022-08-01T04:00:20;19.70;99.90
22071;DHT22;11200;51.488;6.668;2022-08-01T04:02:47;19.40;99.90
22071;DHT22;11200;51.488;6.668;2022-08-01T04:05:14;19.60;99.90
22071;DHT22;11200;51.488;6.668;2022-08-01T04:07:45;19.60;99.90
22071;DHT22;11200;51.488;6.668;2022-08-01T04:10:12;19.70;99.90
22071;DHT22;11200;51.488;6.668;2022-08-01T04:12:38;19.70;99.90
22071;DHT22;11200;51.488;6.668;2022-08-01T04:15:05;19.60;99.90
22071;DHT22;11200;51.488;6.668;2022-08-01T04:17:31;19.60;99.90
22071;DHT22;11200;51.488;6.668;2022-08-01T04:19:56;19.60;99.90
22071;DHT22;11200;51.488;6.668;2022-08-01T04:22:22;19.70;99.90
22071;DHT22;11200;51.488;6.668;2022-08-01T04:24:50;19.60;99.90
22071;DHT22;11200;51.488;6.668;2022-08-01T04:27:21;19.60;99.90
22071;DHT22;11200;51.488;6.668;2022-08-01T04:29:49;19.60;99.90
22071;DHT22;11200;51.488;6.668;2022-08-01T04:32:18;19.60;99.90
22071;DHT22;11200;51.488;6.668;2022-08-01T04:34:46;19.60;99.90
22071;DHT22;11200;51.488;6.668;2022-08-01T04:37:14;19.60;99.90
22071;DHT22;11200;51.488;6.668;2022-08-01T04:39:45;19.60;99.90
22071;DHT22;11200;51.488;6.668;2022-08-01T04:42:13;19.60;99.90
22071;DHT22;11200;51.488;6.668;2022-08-01T04:44:39;19.60;99.90
22071;DHT22;11200;51.488;6.668;2022-08-01T04:47:05;19.60;99.90
22071;DHT22;11200;51.488;6.668;2022-08-01T04:49:34;19.60;99.90
22071;DHT22;11200;51.488;6.668;2022-08-01T04:52:00;19.60;99.90
22071;DHT22;11200;51.488;6.668;2022-08-01T04:54:34;19.60;99.90
22071;DHT22;11200;51.488;6.668;2022-08-01T04:57:02;19.60;99.90
22071;DHT22;11200;51.488;6.668;2022-08-01T04:59:29;19.60;99.90
22071;DHT22;11200;51.488;6.668;2022-08-01T05:02:08;19.60;99.90
22071;DHT22;11200;51.488;6.668;2022-08-01T05:04:34;19.60;99.90
22071;DHT22;11200;51.488;6.668;2022-08-01T05:07:00;19.60;99.90
22071;DHT22;11200;51.488;6.668;2022-08-01T05:09:27;19.60;99.90
22071;DHT22;11200;51.488;6.668;2022-08-01T05:11:52;19.60;99.90
22071;DHT22;11200;51.488;6.668;2022-08-01T05:14:18;19.60;99.90
22071;DHT22;11200;51.488;6.668;2022-08-01T05:16:44;19.60;99.90
22071;DHT22;11200;51.488;6.668;2022-08-01T05:19:11;19.60;99.90
22071;DHT22;11200;51.488;6.668;2022-08-01T05:21:37;19.60;99.90
22071;DHT22;11200;51.488;6.668;2022-08-01T05:24:03;19.60;99.90
22071;DHT22;11200;51.488;6.668;2022-08-01T05:26:29;19.60;99.90
22071;DHT22;11200;51.488;6.668;2022-08-01T05:28:55;19.60;99.90
22071;DHT22;11200;51.488;6.668;2022-08-01T05:31:20;19.60;99.90
22071;DHT22;11200;51.488;6.668;2022-08-01T05:33:46;19.60;99.90
22071;DHT22;11200;51.488;6.668;2022-08-01T05:36:12;19.60;99.90
22071;DHT22;11200;51.488;6.668;2022-08-01T05:38:37;19.60;99.90
22071;DHT22;11200;51.488;6.668;2022-08-01T05:41:03;19.60;99.90
22071;DHT22;11200;51.488;6.668;2022-08-01T05:43:28;19.60;99.90
22071;DHT22;11200;51.488;6.668;2022-08-01T05:45:54;19.60;99.90
22071;DHT22;11200;51.488;6.668;2022-08-01T05:48:20;19.60;99.90
22071;DHT22;11200;51.488;6.668;2022-08-01T05:50:45;19.60;99.90
22071;DHT22;11200;51.488;6.668;2022-08-01T05:53:13;19.60;99.90
22071;DHT22;11200;51.488;6.668;2022-08-01T05:55:38;19.70;99.90
22071;DHT22;11200;51.488;6.668;2022-08-01T05:58:04;19.60;99.90
22071;DHT22;11200;51.488;6.668;2022-08-01T06:00:29;19.70;99.90
22071;DHT22;11200;51.488;6.668;2022-08-01T06:02:55;19.70;99.90
22071;DHT22;11200;51.488;6.668;2022-08-01T06:05:21;19.70;99.90
22071;DHT22;11200;51.488;6.668;2022-08-01T06:07:46;19.70;99.90
22071;DHT22;11200;51.488;6.668;2022-08-01T06:10:12;19.70;99.90
22071;DHT22;11200;51.488;6.668;2022-08-01T06:12:37;19.80;99.90
22071;DHT22;11200;51.488;6.668;2022-08-01T06:15:07;19.70;99.90
22071;DHT22;11200;51.488;6.668;2022-08-01T06:17:33;19.80;99.90
22071;DHT22;11200;51.488;6.668;2022-08-01T06:19:58;19.80;99.90
22071;DHT22;11200;51.488;6.668;2022-08-01T06:22:25;19.80;99.90
22071;DHT22;11200;51.488;6.668;2022-08-01T06:24:50;19.80;99.90
22071;DHT22;11200;51.488;6.668;2022-08-01T06:27:16;19.80;99.90
22071;DHT22;11200;51.488;6.668;2022-08-01T06:29:41;19.90;99.90
22071;DHT22;11200;51.488;6.668;2022-08-01T06:32:08;19.90;99.90
22071;DHT22;11200;51.488;6.668;2022-08-01T06:34:35;19.90;99.90
22071;DHT22;11200;51.488;6.668;2022-08-01T06:37:00;19.90;99.90
22071;DHT22;11200;51.488;6.668;2022-08-01T06:39:26;19.90;99.90
22071;DHT22;11200;51.488;6.668;2022-08-01T06:41:52;20.00;99.90
22071;DHT22;11200;51.488;6.668;2022-08-01T06:44:17;20.00;99.90
22071;DHT22;11200;51.488;6.668;2022-08-01T06:46:43;20.00;99.90
22071;DHT22;11200;51.488;6.668;2022-08-01T06:49:08;20.00;99.90
22071;DHT22;11200;51.488;6.668;2022-08-01T06:51:34;20.00;99.90
22071;DHT22;11200;51.488;6.668;2022-08-01T06:53:59;20.00;99.90
22071;DHT22;11200;51.488;6.668;2022-08-01T06:56:25;20.10;99.90
22071;DHT22;11200;51.488;6.668;2022-08-01T06:58:51;20.10;99.90
22071;DHT22;11200;51.488;6.668;2022-08-01T07:01:16;20.10;99.90
22071;DHT22;11200;51.488;6.668;2022-08-01T07:03:42;20.10;99.90
22071;DHT22;11200;51.488;6.668;2022-08-01T07:06:08;20.20;99.90
22071;DHT22;11200;51.488;6.668;2022-08-01T07:08:33;20.20;99.90
22071;DHT22;11200;51.488;6.668;2022-08-01T07:10:59;20.20;99.90
22071;DHT22;11200;51.488;6.668;2022-08-01T07:13:28;20.30;99.90
22071;DHT22;11200;51.488;6.668;2022-08-01T07:15:56;20.30;99.90
22071;DHT22;11200;51.488;6.668;2022-08-01T07:18:22;20.30;99.90
22071;DHT22;11200;51.488;6.668;2022-08-01T07:20:48;20.40;99.90
22071;DHT22;11200;51.488;6.668;2022-08-01T07:23:14;20.40;99.90
22071;DHT22;11200;51.488;6.668;2022-08-01T07:25:43;20.40;99.90
22071;DHT22;11200;51.488;6.668;2022-08-01T07:28:13;21.00;99.90
22071;DHT22;11200;51.488;6.668;2022-08-01T07:30:38;20.50;99.90
22071;DHT22;11200;51.488;6.668;2022-08-01T07:33:07;20.60;99.90
22071;DHT22;11200;51.488;6.668;2022-08-01T07:35:33;20.70;99.90
22071;DHT22;11200;51.488;6.668;2022-08-01T07:37:59;20.70;99.90
22071;DHT22;11200;51.488;6.668;2022-08-01T07:40:25;20.70;99.90
22071;DHT22;11200;51.488;6.668;2022-08-01T07:42:50;20.80;99.90
22071;DHT22;11200;51.488;6.668;2022-08-01T07:45:16;20.90;99.90
22071;DHT22;11200;51.488;6.668;2022-08-01T07:47:42;20.90;99.90
22071;DHT22;11200;51.488;6.668;2022-08-01T07:50:08;20.90;99.90
22071;DHT22;11200;51.488;6.668;2022-08-01T07:52:43;21.00;99.90
22071;DHT22;11200;51.488;6.668;2022-08-01T07:55:10;21.10;99.90
22071;DHT22;11200;51.488;6.668;2022-08-01T07:57:37;21.10;99.90
22071;DHT22;11200;51.488;6.668;2022-08-01T08:00:04;21.20;99.90
22071;DHT22;11200;51.488;6.668;2022-08-01T08:02:31;21.20;99.90
22071;DHT22;11200;51.488;6.668;2022-08-01T08:04:56;21.30;99.90
22071;DHT22;11200;51.488;6.668;2022-08-01T08:07:22;21.40;99.90
22071;DHT22;11200;51.488;6.668;2022-08-01T08:09:48;21.50;99.90
22071;DHT22;11200;51.488;6.668;2022-08-01T08:12:13;21.60;99.90
22071;DHT22;11200;51.488;6.668;2022-08-01T08:14:45;21.70;99.90
22071;DHT22;11200;51.488;6.668;2022-08-01T08:17:16;21.80;99.90
22071;DHT22;11200;51.488;6.668;2022-08-01T08:19:42;21.90;99.90
22071;DHT22;11200;51.488;6.668;2022-08-01T08:22:08;22.00;99.90
22071;DHT22;11200;51.488;6.668;2022-08-01T08:24:37;22.00;99.90
22071;DHT22;11200;51.488;6.668;2022-08-01T08:27:03;22.00;99.90
22071;DHT22;11200;51.488;6.668;2022-08-01T08:29:30;22.20;99.90
22071;DHT22;11200;51.488;6.668;2022-08-01T08:31:59;22.30;99.90
22071;DHT22;11200;51.488;6.668;2022-08-01T08:34:26;22.40;99.90
22071;DHT22;11200;51.488;6.668;2022-08-01T08:36:53;22.50;99.90
22071;DHT22;11200;51.488;6.668;2022-08-01T08:39:19;22.70;99.90
22071;DHT22;11200;51.488;6.668;2022-08-01T08:41:44;22.80;99.90
22071;DHT22;11200;51.488;6.668;2022-08-01T08:44:10;22.90;99.90
22071;DHT22;11200;51.488;6.668;2022-08-01T08:46:44;23.00;99.90
22071;DHT22;11200;51.488;6.668;2022-08-01T08:49:12;23.10;99.90
22071;DHT22;11200;51.488;6.668;2022-08-01T08:51:39;23.20;99.90
22071;DHT22;11200;51.488;6.668;2022-08-01T08:54:06;23.30;99.90
22071;DHT22;11200;51.488;6.668;2022-08-01T08:56:34;23.50;99.90
22071;DHT22;11200;51.488;6.668;2022-08-01T08:59:02;23.70;99.90
22071;DHT22;11200;51.488;6.668;2022-08-01T09:01:30;23.80;99.90
22071;DHT22;11200;51.488;6.668;2022-08-01T09:04:03;23.50;99.90
22071;DHT22;11200;51.488;6.668;2022-08-01T09:06:29;24.20;99.90
22071;DHT22;11200;51.488;6.668;2022-08-01T09:08:55;24.30;99.90
22071;DHT22;11200;51.488;6.668;2022-08-01T09:11:21;24.40;99.90
22071;DHT22;11200;51.488;6.668;2022-08-01T09:16:33;24.70;99.90
22071;DHT22;11200;51.488;6.668;2022-08-01T09:19:11;24.90;99.90
22071;DHT22;11200;51.488;6.668;2022-08-01T09:21:37;25.00;99.90
22071;DHT22;11200;51.488;6.668;2022-08-01T09:24:03;25.20;99.90
22071;DHT22;11200;51.488;6.668;2022-08-01T09:26:35;25.10;99.90
22071;DHT22;11200;51.488;6.668;2022-08-01T09:29:18;25.20;99.90
22071;DHT22;11200;51.488;6.668;2022-08-01T09:31:44;25.20;99.90
22071;DHT22;11200;51.488;6.668;2022-08-01T09:34:10;25.30;99.90
22071;DHT22;11200;51.488;6.668;2022-08-01T09:36:49;25.40;99.90
22071;DHT22;11200;51.488;6.668;2022-08-01T09:39:21;25.50;99.90
22071;DHT22;11200;51.488;6.668;2022-08-01T09:41:47;25.60;99.90
22071;DHT22;11200;51.488;6.668;2022-08-01T09:44:14;25.80;99.90
22071;DHT22;11200;51.488;6.668;2022-08-01T09:46:53;25.80;99.90
22071;DHT22;11200;51.488;6.668;2022-08-01T09:49:33;25.80;99.90
22071;DHT22;11200;51.488;6.668;2022-08-01T09:52:17;25.90;99.90
22071;DHT22;11200;51.488;6.668;2022-08-01T09:54:52;25.90;99.90
22071;DHT22;11200;51.488;6.668;2022-08-01T09:57:19;25.90;99.90
22071;DHT22;11200;51.488;6.668;2022-08-01T09:59:50;25.90;99.90
22071;DHT22;11200;51.488;6.668;2022-08-01T10:02:37;25.80;99.90
22071;DHT22;11200;51.488;6.668;2022-08-01T10:05:06;25.80;99.90
22071;DHT22;11200;51.488;6.668;2022-08-01T10:07:32;25.80;99.90
22071;DHT22;11200;51.488;6.668;2022-08-01T10:10:11;25.70;99.90
22071;DHT22;11200;51.488;6.668;2022-08-01T10:12:37;25.60;99.90
22071;DHT22;11200;51.488;6.668;2022-08-01T10:15:05;25.60;99.90
22071;DHT22;11200;51.488;6.668;2022-08-01T10:17:32;25.50;99.90
22071;DHT22;11200;51.488;6.668;2022-08-01T10:20:01;25.50;99.90
22071;DHT22;11200;51.488;6.668;2022-08-01T10:22:27;25.50;99.90
22071;DHT22;11200;51.488;6.668;2022-08-01T10:24:55;25.50;99.90
22071;DHT22;11200;51.488;6.668;2022-08-01T10:27:23;25.40;99.90
22071;DHT22;11200;51.488;6.668;2022-08-01T10:29:56;25.40;99.90
22071;DHT22;11200;51.488;6.668;2022-08-01T10:32:23;25.30;99.90
22071;DHT22;11200;51.488;6.668;2022-08-01T10:34:49;25.20;99.90
22071;DHT22;11200;51.488;6.668;2022-08-01T10:37:16;25.20;99.90
22071;DHT22;11200;51.488;6.668;2022-08-01T10:39:42;25.10;99.90
22071;DHT22;11200;51.488;6.668;2022-08-01T10:42:10;25.00;99.90
22071;DHT22;11200;51.488;6.668;2022-08-01T10:44:38;25.00;99.90
22071;DHT22;11200;51.488;6.668;2022-08-01T10:47:10;24.90;99.90
22071;DHT22;11200;51.488;6.668;2022-08-01T10:49:43;24.90;99.90
22071;DHT22;11200;51.488;6.668;2022-08-01T10:52:15;24.80;99.90
22071;DHT22;11200;51.488;6.668;2022-08-01T10:54:40;24.70;99.90
22071;DHT22;11200;51.488;6.668;2022-08-01T10:57:06;24.70;99.90
22071;DHT22;11200;51.488;6.668;2022-08-01T10:59:32;24.60;99.90
22071;DHT22;11200;51.488;6.668;2022-08-01T11:02:00;24.60;99.90
22071;DHT22;11200;51.488;6.668;2022-08-01T11:04:44;24.50;99.90
22071;DHT22;11200;51.488;6.668;2022-08-01T11:07:17;24.50;99.90
22071;DHT22;11200;51.488;6.668;2022-08-01T11:10:16;24.50;99.90
22071;DHT22;11200;51.488;6.668;2022-08-01T11:12:41;24.50;99.90
22071;DHT22;11200;51.488;6.668;2022-08-01T11:17:42;24.50;99.90
22071;DHT22;11200;51.488;6.668;2022-08-01T11:20:15;24.50;99.90
22071;DHT22;11200;51.488;6.668;2022-08-01T11:38:45;24.90;99.90
22071;DHT22;11200;51.488;6.668;2022-08-01T11:41:16;25.10;99.90
22071;DHT22;11200;51.488;6.668;2022-08-01T11:44:01;25.20;99.90
22071;DHT22;11200;51.488;6.668;2022-08-01T11:46:47;25.40;99.90
22071;DHT22;11200;51.488;6.668;2022-08-01T11:52:10;25.60;99.90
22071;DHT22;11200;51.488;6.668;2022-08-01T11:54:48;25.80;99.90
22071;DHT22;11200;51.488;6.668;2022-08-01T11:57:18;25.90;99.90
22071;DHT22;11200;51.488;6.668;2022-08-01T11:59:46;26.00;99.90
22071;DHT22;11200;51.488;6.668;2022-08-01T12:02:18;26.10;99.90
22071;DHT22;11200;51.488;6.668;2022-08-01T12:04:45;26.20;99.90
22071;DHT22;11200;51.488;6.668;2022-08-01T12:07:15;26.30;99.90
22071;DHT22;11200;51.488;6.668;2022-08-01T12:09:41;26.40;99.90
22071;DHT22;11200;51.488;6.668;2022-08-01T12:12:07;26.40;99.90
22071;DHT22;11200;51.488;6.668;2022-08-01T12:14:36;26.90;99.90
22071;DHT22;11200;51.488;6.668;2022-08-01T12:17:02;26.50;99.90
22071;DHT22;11200;51.488;6.668;2022-08-01T12:19:28;26.60;99.90
22071;DHT22;11200;51.488;6.668;2022-08-01T12:22:13;26.60;99.90
22071;DHT22;11200;51.488;6.668;2022-08-01T12:24:41;26.60;99.90
22071;DHT22;11200;51.488;6.668;2022-08-01T12:27:08;26.60;99.90
22071;DHT22;11200;51.488;6.668;2022-08-01T12:29:40;26.60;99.90
22071;DHT22;11200;51.488;6.668;2022-08-01T12:34:47;26.70;99.90
22071;DHT22;11200;51.488;6.668;2022-08-01T12:37:12;26.60;99.90
22071;DHT22;11200;51.488;6.668;2022-08-01T12:39:38;26.60;99.90
22071;DHT22;11200;51.488;6.668;2022-08-01T12:42:07;26.70;99.90
22071;DHT22;11200;51.488;6.668;2022-08-01T12:44:36;26.70;99.90
22071;DHT22;11200;51.488;6.668;2022-08-01T12:47:04;26.70;99.90
22071;DHT22;11200;51.488;6.668;2022-08-01T12:49:31;26.70;99.90
22071;DHT22;11200;51.488;6.668;2022-08-01T12:51:57;26.70;99.90
22071;DHT22;11200;51.488;6.668;2022-08-01T12:54:26;26.80;99.90
22071;DHT22;11200;51.488;6.668;2022-08-01T12:56:52;26.80;99.90
22071;DHT22;11200;51.488;6.668;2022-08-01T12:59:24;26.80;99.90
22071;DHT22;11200;51.488;6.668;2022-08-01T13:01:56;26.80;99.90
22071;DHT22;11200;51.488;6.668;2022-08-01T13:04:22;26.80;99.90
22071;DHT22;11200;51.488;6.668;2022-08-01T13:06:54;26.80;99.90
22071;DHT22;11200;51.488;6.668;2022-08-01T13:09:19;26.80;99.90
22071;DHT22;11200;51.488;6.668;2022-08-01T13:11:45;26.80;99.90
22071;DHT22;11200;51.488;6.668;2022-08-01T13:14:34;26.80;99.90
22071;DHT22;11200;51.488;6.668;2022-08-01T13:16:59;26.60;99.90
22071;DHT22;11200;51.488;6.668;2022-08-01T13:19:44;26.90;99.90
22071;DHT22;11200;51.488;6.668;2022-08-01T13:22:10;26.90;99.90
22071;DHT22;11200;51.488;6.668;2022-08-01T13:24:35;26.90;99.90
22071;DHT22;11200;51.488;6.668;2022-08-01T13:27:03;26.90;99.90
22071;DHT22;11200;51.488;6.668;2022-08-01T13:29:33;26.90;99.90
22071;DHT22;11200;51.488;6.668;2022-08-01T13:32:21;26.90;99.90
22071;DHT22;11200;51.488;6.668;2022-08-01T13:34:45;26.90;99.90
22071;DHT22;11200;51.488;6.668;2022-08-01T13:37:10;26.90;99.90
22071;DHT22;11200;51.488;6.668;2022-08-01T13:39:36;27.00;99.90
22071;DHT22;11200;51.488;6.668;2022-08-01T13:42:16;27.00;99.90
22071;DHT22;11200;51.488;6.668;2022-08-01T13:44:43;27.00;99.90
22071;DHT22;11200;51.488;6.668;2022-08-01T13:47:11;27.00;99.90
22071;DHT22;11200;51.488;6.668;2022-08-01T13:49:38;27.00;99.90
22071;DHT22;11200;51.488;6.668;2022-08-01T13:52:05;27.00;99.90
22071;DHT22;11200;51.488;6.668;2022-08-01T13:54:33;26.90;99.90
22071;DHT22;11200;51.488;6.668;2022-08-01T13:56:59;26.90;99.90
22071;DHT22;11200;51.488;6.668;2022-08-01T13:59:25;26.90;99.90
22071;DHT22;11200;51.488;6.668;2022-08-01T14:01:50;26.80;99.90
22071;DHT22;11200;51.488;6.668;2022-08-01T14:04:16;26.80;99.90
22071;DHT22;11200;51.488;6.668;2022-08-01T14:06:42;26.80;99.90
22071;DHT22;11200;51.488;6.668;2022-08-01T14:09:08;26.80;99.90
22071;DHT22;11200;51.488;6.668;2022-08-01T14:11:33;26.80;99.90
22071;DHT22;11200;51.488;6.668;2022-08-01T14:13:59;26.70;99.90
22071;DHT22;11200;51.488;6.668;2022-08-01T14:16:25;26.70;99.90
22071;DHT22;11200;51.488;6.668;2022-08-01T14:18:50;26.60;99.90
22071;DHT22;11200;51.488;6.668;2022-08-01T14:21:16;26.60;99.90
22071;DHT22;11200;51.488;6.668;2022-08-01T14:23:47;26.60;99.90
22071;DHT22;11200;51.488;6.668;2022-08-01T14:26:22;26.60;99.90
22071;DHT22;11200;51.488;6.668;2022-08-01T14:28:48;26.50;99.90
22071;DHT22;11200;51.488;6.668;2022-08-01T14:31:13;26.50;99.90
22071;DHT22;11200;51.488;6.668;2022-08-01T14:33:39;26.50;99.90
22071;DHT22;11200;51.488;6.668;2022-08-01T14:36:05;26.50;99.90
22071;DHT22;11200;51.488;6.668;2022-08-01T14:38:31;26.40;99.90
22071;DHT22;11200;51.488;6.668;2022-08-01T14:40:56;26.40;99.90
22071;DHT22;11200;51.488;6.668;2022-08-01T14:43:22;26.30;99.90
22071;DHT22;11200;51.488;6.668;2022-08-01T14:45:48;26.30;99.90
22071;DHT22;11200;51.488;6.668;2022-08-01T14:48:18;26.30;99.90
22071;DHT22;11200;51.488;6.668;2022-08-01T14:50:44;26.30;99.90
22071;DHT22;11200;51.488;6.668;2022-08-01T14:53:10;26.30;99.90
22071;DHT22;11200;51.488;6.668;2022-08-01T14:55:35;26.30;99.90
22071;DHT22;11200;51.488;6.668;2022-08-01T14:58:01;26.30;99.90
22071;DHT22;11200;51.488;6.668;2022-08-01T15:00:27;26.30;99.90
22071;DHT22;11200;51.488;6.668;2022-08-01T15:02:56;26.30;99.90
22071;DHT22;11200;51.488;6.668;2022-08-01T15:05:22;26.30;99.90
22071;DHT22;11200;51.488;6.668;2022-08-01T15:07:47;26.20;99.90
22071;DHT22;11200;51.488;6.668;2022-08-01T15:10:13;26.20;99.90
22071;DHT22;11200;51.488;6.668;2022-08-01T15:12:39;26.20;99.90
22071;DHT22;11200;51.488;6.668;2022-08-01T15:15:05;26.20;99.90
22071;DHT22;11200;51.488;6.668;2022-08-01T15:17:31;26.20;99.90
22071;DHT22;11200;51.488;6.668;2022-08-01T15:20:06;26.20;99.90
22071;DHT22;11200;51.488;6.668;2022-08-01T15:22:33;26.10;99.90
22071;DHT22;11200;51.488;6.668;2022-08-01T15:25:00;26.00;99.90
22071;DHT22;11200;51.488;6.668;2022-08-01T15:27:27;26.10;99.90
22071;DHT22;11200;51.488;6.668;2022-08-01T15:29:54;26.10;99.90
22071;DHT22;11200;51.488;6.668;2022-08-01T15:32:20;26.00;99.90
22071;DHT22;11200;51.488;6.668;2022-08-01T15:34:46;26.00;99.90
22071;DHT22;11200;51.488;6.668;2022-08-01T15:37:12;26.00;99.90
22071;DHT22;11200;51.488;6.668;2022-08-01T15:39:38;25.90;99.90
22071;DHT22;11200;51.488;6.668;2022-08-01T15:42:07;25.90;99.90
22071;DHT22;11200;51.488;6.668;2022-08-01T15:44:33;25.80;99.90
22071;DHT22;11200;51.488;6.668;2022-08-01T15:47:00;26.20;99.90
22071;DHT22;11200;51.488;6.668;2022-08-01T15:49:26;25.80;99.90
22071;DHT22;11200;51.488;6.668;2022-08-01T15:51:51;25.70;99.90
22071;DHT22;11200;51.488;6.668;2022-08-01T15:54:17;25.70;99.90
22071;DHT22;11200;51.488;6.668;2022-08-01T15:56:43;25.70;99.90
22071;DHT22;11200;51.488;6.668;2022-08-01T15:59:12;25.70;99.90
22071;DHT22;11200;51.488;6.668;2022-08-01T16:01:38;25.60;99.90
22071;DHT22;11200;51.488;6.668;2022-08-01T16:04:04;25.50;99.90
22071;DHT22;11200;51.488;6.668;2022-08-01T16:06:30;25.50;99.90
22071;DHT22;11200;51.488;6.668;2022-08-01T16:08:56;25.40;99.90
22071;DHT22;11200;51.488;6.668;2022-08-01T16:11:22;25.40;99.90
22071;DHT22;11200;51.488;6.668;2022-08-01T16:13:53;25.40;99.90